Terminal Aerodrome Forecast
Issued by NWS Knoxville/Tri Cities, TN

Home | Current Version | Previous Version | Text Only | Print | Product List | Glossary On
Versions: 1 2 3 4 5 6 7 8 9 10 11 12 13 14 15 16 17 18 19
000
FTUS44 KMRX 300528
TAFTYS
TAF
KTYS 300528Z 3006/3106 22003KT P6SM SCT040 SCT250
     FM300800 VRB03KT 5SM BR BKN020
      TEMPO 3010/3014 2SM BR BKN009
     FM301400 23005KT P6SM BKN035
     FM301800 25006KT P6SM SCT050 SCT250
     FM310000 23005KT P6SM BKN250=

USA.gov is the U.S. government's official web portal to all federal, state and local government web resources and services.